createdAt,value
2019-02-18T00:01:35.422Z,8.70
2019-02-18T00:04:04.421Z,9.77
2019-02-18T00:06:33.461Z,8.77
2019-02-18T00:09:02.588Z,8.23
2019-02-18T00:11:31.720Z,8.60
2019-02-18T00:14:00.648Z,7.57
2019-02-18T00:16:29.740Z,8.70
2019-02-18T00:18:58.716Z,8.80
2019-02-18T00:21:27.778Z,7.80
2019-02-18T00:23:56.864Z,8.10
2019-02-18T00:26:25.793Z,7.17
2019-02-18T00:28:54.759Z,9.00
2019-02-18T00:31:23.776Z,8.37
2019-02-18T00:33:52.742Z,8.93
2019-02-18T00:36:21.811Z,9.03
2019-02-18T00:38:50.716Z,8.50
2019-02-18T00:41:20.208Z,7.80
2019-02-18T00:43:49.107Z,7.43
2019-02-18T00:46:18.194Z,8.43
2019-02-18T00:48:47.161Z,8.23
2019-02-18T00:51:16.194Z,7.47
2019-02-18T00:53:45.225Z,8.00
2019-02-18T00:56:14.273Z,8.37
2019-02-18T00:58:43.766Z,8.57
2019-02-18T01:01:12.921Z,8.47
2019-02-18T01:03:41.892Z,8.83
2019-02-18T01:06:10.938Z,8.60
2019-02-18T01:08:40.005Z,7.90
2019-02-18T01:11:08.898Z,7.90
2019-02-18T01:13:37.987Z,9.40
2019-02-18T01:16:07.041Z,8.70
2019-02-18T01:18:35.555Z,8.23
2019-02-18T01:21:05.410Z,8.87
2019-02-18T01:23:34.653Z,9.20
2019-02-18T01:26:03.747Z,9.13
2019-02-18T01:28:32.988Z,8.90
2019-02-18T01:31:02.016Z,9.97
2019-02-18T01:33:30.992Z,8.87
2019-02-18T01:35:59.976Z,10.03
2019-02-18T01:38:28.921Z,9.00
2019-02-18T01:40:57.973Z,8.33
2019-02-18T01:43:26.959Z,8.30
2019-02-18T01:45:55.836Z,7.27
2019-02-18T01:48:24.814Z,7.30
2019-02-18T01:50:53.860Z,7.60
2019-02-18T01:53:22.783Z,7.70
2019-02-18T01:55:51.745Z,7.60
2019-02-18T01:58:20.745Z,8.60
2019-02-18T02:00:49.717Z,8.50
2019-02-18T02:03:18.204Z,8.77
2019-02-18T02:05:47.249Z,7.60
2019-02-18T02:08:16.291Z,7.97
2019-02-18T02:10:45.239Z,7.60
2019-02-18T02:13:34.976Z,7.07
2019-02-18T02:16:11.916Z,7.77
2019-02-18T02:18:41.006Z,7.40
2019-02-18T02:21:10.041Z,7.57
2019-02-18T02:23:38.991Z,8.13
2019-02-18T02:26:08.371Z,8.23
2019-02-18T02:28:37.287Z,7.20
2019-02-18T02:31:05.747Z,7.93
2019-02-18T02:33:34.655Z,7.73
2019-02-18T02:36:03.553Z,8.17
2019-02-18T02:38:32.509Z,8.50
2019-02-18T02:41:01.480Z,8.53
2019-02-18T02:43:30.198Z,7.50
2019-02-18T02:45:59.101Z,7.97
2019-02-18T02:48:28.082Z,6.60
2019-02-18T02:50:57.128Z,7.50
2019-02-18T02:53:26.017Z,7.97
2019-02-18T02:55:54.980Z,7.30
2019-02-18T02:58:24.092Z,8.03
2019-02-18T03:00:53.156Z,7.30
2019-02-18T03:03:22.140Z,7.73
2019-02-18T03:05:51.059Z,9.23
2019-02-18T03:08:20.886Z,8.20
2019-02-18T03:10:50.112Z,8.10
2019-02-18T03:13:19.110Z,9.40
2019-02-18T03:15:48.064Z,9.00
2019-02-18T03:18:17.041Z,8.10
2019-02-18T03:20:46.184Z,9.50
2019-02-18T03:23:15.260Z,9.27
2019-02-18T03:25:47.541Z,8.90
2019-02-18T03:28:52.704Z,9.60
2019-02-18T03:31:26.086Z,9.50
2019-02-18T03:34:12.537Z,9.63
2019-02-18T03:36:41.637Z,8.30
2019-02-18T03:39:10.588Z,10.60
2019-02-18T03:41:40.991Z,9.47
2019-02-18T03:44:10.460Z,9.83
2019-02-18T03:46:39.405Z,9.53
2019-02-18T03:49:08.313Z,9.63
2019-02-18T03:51:38.953Z,10.10
2019-02-18T03:54:07.917Z,9.90
2019-02-18T03:56:36.867Z,9.27
2019-02-18T03:59:05.877Z,9.73
2019-02-18T04:01:34.853Z,9.40
2019-02-18T04:04:03.927Z,8.53
2019-02-18T04:06:32.945Z,9.13
2019-02-18T04:09:01.880Z,9.13
2019-02-18T04:11:31.060Z,9.37
2019-02-18T04:14:00.023Z,7.97
2019-02-18T04:16:30.169Z,9.83
2019-02-18T04:18:59.200Z,10.20
2019-02-18T04:21:28.153Z,9.50
2019-02-18T04:23:57.197Z,9.20
2019-02-18T04:26:26.124Z,10.50
2019-02-18T04:28:55.095Z,10.93
2019-02-18T04:31:24.221Z,10.13
2019-02-18T04:33:53.209Z,11.20
2019-02-18T04:36:22.141Z,9.10
2019-02-18T04:38:54.098Z,9.77
2019-02-18T04:41:21.904Z,10.07
2019-02-18T04:43:50.869Z,9.93
2019-02-18T04:46:19.781Z,9.97
2019-02-18T04:48:48.804Z,9.83
2019-02-18T04:51:17.838Z,9.50
2019-02-18T04:53:46.861Z,9.77
2019-02-18T04:56:15.793Z,9.50
2019-02-18T04:58:44.619Z,10.47
2019-02-18T05:01:13.620Z,7.90
2019-02-18T05:03:42.613Z,9.10
2019-02-18T05:06:11.587Z,8.70
2019-02-18T05:08:40.553Z,9.37
2019-02-18T05:11:09.592Z,8.90
2019-02-18T05:13:38.496Z,10.20
2019-02-18T05:16:07.028Z,10.43
2019-02-18T05:18:36.017Z,9.43
2019-02-18T05:21:04.562Z,10.03
2019-02-18T05:23:33.107Z,10.00
2019-02-18T05:26:01.649Z,10.57
2019-02-18T05:28:30.609Z,9.80
2019-02-18T05:30:59.463Z,10.17
2019-02-18T05:33:28.474Z,13.13
2019-02-18T05:35:57.904Z,12.73
2019-02-18T05:38:26.867Z,13.50
2019-02-18T05:40:55.900Z,13.57
2019-02-18T05:43:24.940Z,12.63
2019-02-18T05:45:54.000Z,12.20
2019-02-18T05:48:23.058Z,14.03
2019-02-18T05:50:51.942Z,12.50
2019-02-18T05:53:21.049Z,12.87
2019-02-18T05:55:50.042Z,12.07
2019-02-18T05:58:18.847Z,11.10
2019-02-18T06:00:47.871Z,11.12
2019-02-18T06:03:16.961Z,10.23
2019-02-18T06:05:45.941Z,11.10
2019-02-18T06:08:14.563Z,11.57
2019-02-18T06:10:43.585Z,10.37
2019-02-18T06:13:12.667Z,11.50
2019-02-18T06:15:41.652Z,11.33
2019-02-18T06:18:10.596Z,11.50
2019-02-18T06:20:39.572Z,10.40
2019-02-18T06:23:08.852Z,12.20
2019-02-18T06:25:37.805Z,10.43
2019-02-18T06:28:06.937Z,10.93
2019-02-18T06:30:35.826Z,10.60
2019-02-18T06:33:04.817Z,11.60
2019-02-18T06:35:33.836Z,11.70
2019-02-18T06:38:02.933Z,12.47
2019-02-18T06:40:32.014Z,11.27
2019-02-18T06:43:00.976Z,11.00
2019-02-18T06:45:35.074Z,10.50
2019-02-18T06:48:26.965Z,10.63
2019-02-18T06:50:55.931Z,11.40
2019-02-18T06:53:24.983Z,11.50
2019-02-18T06:55:53.973Z,11.93
2019-02-18T06:58:51.052Z,11.70
2019-02-18T07:01:39.061Z,11.00
2019-02-18T07:04:18.655Z,10.90
2019-02-18T07:06:58.100Z,11.73
2019-02-18T07:09:51.287Z,10.40
2019-02-18T07:12:20.250Z,10.27
2019-02-18T07:14:49.316Z,10.10
2019-02-18T07:17:18.077Z,10.80
2019-02-18T07:19:47.184Z,10.40
2019-02-18T07:22:16.139Z,9.57
2019-02-18T07:24:45.332Z,9.43
2019-02-18T07:27:14.352Z,9.73
2019-02-18T07:29:43.423Z,12.60
2019-02-18T07:32:12.318Z,9.30
2019-02-18T07:34:41.308Z,10.50
2019-02-18T07:37:10.342Z,10.17
2019-02-18T07:39:39.301Z,9.80
2019-02-18T07:42:08.372Z,9.53
2019-02-18T07:44:37.331Z,9.60
2019-02-18T07:47:06.245Z,9.63
2019-02-18T07:49:35.192Z,9.30
2019-02-18T07:52:04.289Z,9.57
2019-02-18T07:54:33.330Z,9.97
2019-02-18T07:57:02.390Z,9.57
2019-02-18T07:59:31.340Z,9.90
2019-02-18T08:02:00.411Z,8.77
2019-02-18T08:04:29.472Z,9.73
2019-02-18T08:06:58.333Z,9.60
2019-02-18T08:09:27.383Z,9.73
2019-02-18T08:11:56.457Z,10.40
2019-02-18T08:14:25.425Z,9.40
2019-02-18T08:16:54.441Z,10.63
2019-02-18T08:19:23.603Z,10.40
2019-02-18T08:21:52.665Z,9.57
2019-02-18T08:24:21.585Z,9.43
2019-02-18T08:26:50.828Z,9.47
2019-02-18T08:29:19.804Z,9.53
2019-02-18T08:31:48.841Z,10.80
2019-02-18T08:34:17.433Z,10.23
2019-02-18T08:36:46.341Z,10.17
2019-02-18T08:39:15.238Z,11.00
2019-02-18T08:41:44.140Z,10.40
2019-02-18T08:44:13.114Z,10.53
2019-02-18T08:46:42.036Z,10.13
2019-02-18T08:49:11.756Z,10.20
2019-02-18T08:51:40.748Z,9.83
2019-02-18T08:54:09.743Z,10.63
2019-02-18T08:56:38.917Z,11.13
2019-02-18T08:59:07.952Z,10.43
2019-02-18T09:01:36.983Z,11.13
2019-02-18T09:04:05.829Z,11.70
2019-02-18T09:06:34.884Z,10.70
2019-02-18T09:09:04.230Z,11.93
2019-02-18T09:11:33.199Z,11.63
2019-02-18T09:14:01.738Z,10.90
2019-02-18T09:16:30.779Z,11.00
2019-02-18T09:18:59.868Z,11.73
2019-02-18T09:21:30.523Z,11.47
2019-02-18T09:24:10.842Z,10.23
2019-02-18T09:26:39.875Z,10.97
2019-02-18T09:29:08.416Z,11.77
2019-02-18T09:31:37.507Z,11.10
2019-02-18T09:34:06.439Z,11.17
2019-02-18T09:36:35.463Z,11.43
2019-02-18T09:39:05.425Z,11.93
2019-02-18T09:41:34.478Z,11.20
2019-02-18T09:44:03.464Z,10.87
2019-02-18T09:46:32.405Z,10.50
2019-02-18T09:49:01.416Z,11.03
2019-02-18T09:51:30.488Z,10.87
2019-02-18T09:54:02.493Z,11.50
2019-02-18T09:56:31.465Z,10.07
2019-02-18T09:59:00.520Z,11.10
2019-02-18T10:01:29.487Z,10.40
2019-02-18T10:03:58.495Z,11.77
2019-02-18T10:06:27.011Z,10.83
2019-02-18T10:08:55.487Z,10.17
2019-02-18T10:11:24.016Z,10.07
2019-02-18T10:13:53.054Z,10.70
2019-02-18T10:16:21.572Z,10.93
2019-02-18T10:18:50.682Z,12.03
2019-02-18T10:21:19.655Z,11.07
2019-02-18T10:23:48.615Z,11.10
2019-02-18T10:26:17.670Z,11.13
2019-02-18T10:28:46.613Z,10.37
2019-02-18T10:31:15.548Z,10.80
2019-02-18T10:33:44.762Z,11.53
2019-02-18T10:36:15.528Z,11.50
2019-02-18T10:38:44.480Z,11.10
2019-02-18T10:41:13.434Z,12.55
2019-02-18T10:43:41.987Z,11.20
2019-02-18T10:46:11.346Z,11.70
2019-02-18T10:48:40.332Z,10.90
2019-02-18T10:51:09.310Z,12.20
2019-02-18T10:53:38.449Z,11.60
2019-02-18T10:56:07.428Z,12.70
2019-02-18T10:58:36.405Z,13.47
2019-02-18T11:01:05.790Z,13.50
2019-02-18T11:03:34.682Z,13.00
2019-02-18T11:06:03.567Z,11.47
2019-02-18T11:08:32.653Z,12.00
2019-02-18T11:11:01.660Z,12.33
2019-02-18T11:13:30.749Z,11.10
2019-02-18T11:15:59.701Z,14.50
2019-02-18T11:18:29.039Z,13.17
2019-02-18T11:20:58.103Z,14.87
2019-02-18T11:23:27.541Z,15.17
2019-02-18T11:25:56.579Z,15.03
2019-02-18T11:28:25.623Z,12.63
2019-02-18T11:30:54.626Z,12.23
2019-02-18T11:33:23.622Z,12.67
2019-02-18T11:35:52.760Z,11.00
2019-02-18T11:38:21.972Z,10.80
2019-02-18T11:40:51.069Z,12.13
2019-02-18T11:43:20.055Z,12.80
2019-02-18T11:45:49.044Z,12.00
2019-02-18T11:48:18.021Z,10.63
2019-02-18T11:50:47.144Z,11.50
2019-02-18T11:53:16.203Z,12.00
2019-02-18T11:55:45.373Z,10.83
2019-02-18T11:58:14.359Z,11.87
2019-02-18T12:00:43.482Z,12.33
2019-02-18T12:03:12.769Z,11.17
2019-02-18T12:05:41.882Z,11.83
2019-02-18T12:08:11.046Z,11.53
2019-02-18T12:10:40.076Z,10.90
2019-02-18T12:13:09.054Z,10.93
2019-02-18T12:15:38.152Z,11.20
2019-02-18T12:18:07.184Z,9.20
2019-02-18T12:20:36.658Z,8.60
2019-02-18T12:23:05.825Z,9.23
2019-02-18T12:25:34.405Z,9.57
2019-02-18T12:28:03.381Z,9.10
2019-02-18T12:30:32.640Z,9.00
2019-02-18T12:33:01.814Z,8.90
2019-02-18T12:35:33.731Z,8.70
2019-02-18T12:38:01.183Z,9.00
2019-02-18T12:40:30.152Z,10.00
2019-02-18T12:42:59.169Z,9.33
2019-02-18T12:45:28.186Z,8.77
2019-02-18T12:47:57.291Z,8.60
2019-02-18T12:50:26.375Z,8.50
2019-02-18T12:52:56.336Z,8.07
2019-02-18T12:55:25.619Z,8.13
2019-02-18T12:57:54.753Z,9.20
2019-02-18T13:00:23.850Z,8.27
2019-02-18T13:02:52.968Z,9.10
2019-02-18T13:05:22.262Z,8.83
2019-02-18T13:07:51.499Z,9.03
2019-02-18T13:10:20.839Z,7.90
2019-02-18T13:12:49.969Z,8.70
2019-02-18T13:15:18.965Z,8.87
2019-02-18T13:17:49.805Z,9.20
2019-02-18T13:20:18.967Z,8.97
2019-02-18T13:22:48.158Z,9.07
2019-02-18T13:25:17.120Z,8.90
2019-02-18T13:27:46.594Z,8.53
2019-02-18T13:30:16.010Z,8.57
2019-02-18T13:32:44.960Z,8.57
2019-02-18T13:35:14.090Z,8.90
2019-02-18T13:37:43.060Z,8.10
2019-02-18T13:40:12.145Z,7.40
2019-02-18T13:42:41.265Z,8.50
2019-02-18T13:45:10.239Z,7.53
2019-02-18T13:47:39.226Z,7.50
2019-02-18T13:50:10.038Z,7.07
2019-02-18T13:52:39.116Z,6.97
2019-02-18T13:55:08.552Z,7.70
2019-02-18T13:57:37.545Z,7.80
2019-02-18T14:00:11.576Z,8.20
2019-02-18T14:02:40.936Z,8.70
2019-02-18T14:05:10.172Z,8.40
2019-02-18T14:07:39.180Z,8.47
2019-02-18T14:10:08.159Z,9.37
2019-02-18T14:12:37.628Z,7.70
2019-02-18T14:15:10.174Z,8.60
2019-02-18T14:17:39.346Z,8.00
2019-02-18T14:20:10.565Z,7.40
2019-02-18T14:22:40.083Z,8.43
2019-02-18T14:25:10.596Z,8.03
2019-02-18T14:27:39.597Z,8.90
2019-02-18T14:30:10.301Z,8.27
2019-02-18T14:32:39.405Z,8.60
2019-02-18T14:35:08.295Z,8.80
2019-02-18T14:37:37.221Z,7.53
2019-02-18T14:40:08.478Z,9.07
2019-02-18T14:42:37.709Z,7.57
2019-02-18T14:45:06.819Z,8.70
2019-02-18T14:47:35.941Z,7.80
2019-02-18T14:50:06.326Z,8.90
2019-02-18T14:52:35.437Z,8.33
2019-02-18T14:55:05.722Z,7.63
2019-02-18T14:57:34.684Z,7.60
2019-02-18T15:00:03.803Z,9.17
2019-02-18T15:02:32.718Z,9.00
2019-02-18T15:05:01.765Z,7.90
2019-02-18T15:07:30.755Z,8.57
2019-02-18T15:10:00.133Z,8.57
2019-02-18T15:12:33.077Z,9.57
2019-02-18T15:15:00.055Z,9.73
2019-02-18T15:17:29.236Z,8.37
2019-02-18T15:19:58.206Z,8.23
2019-02-18T15:22:27.279Z,8.73
2019-02-18T15:24:56.809Z,8.50
2019-02-18T15:27:25.818Z,8.03
2019-02-18T15:29:54.871Z,8.57
2019-02-18T15:32:23.870Z,9.93
2019-02-18T15:34:52.802Z,8.57
2019-02-18T15:37:21.986Z,9.00
2019-02-18T15:39:51.477Z,8.53
2019-02-18T15:42:20.561Z,9.67
2019-02-18T15:44:49.633Z,9.37
2019-02-18T15:47:18.850Z,8.70
2019-02-18T15:49:47.860Z,9.67
2019-02-18T15:52:16.936Z,10.30
2019-02-18T15:54:45.866Z,10.17
2019-02-18T15:57:14.476Z,9.70
2019-02-18T15:59:43.573Z,10.93
2019-02-18T16:02:12.562Z,10.00
2019-02-18T16:04:41.563Z,9.80
2019-02-18T16:07:10.585Z,11.40
2019-02-18T16:09:39.601Z,10.93
2019-02-18T16:12:08.612Z,10.73
2019-02-18T16:14:37.677Z,10.10
2019-02-18T16:17:06.884Z,9.73
2019-02-18T16:19:35.914Z,11.47
2019-02-18T16:22:04.484Z,9.90
2019-02-18T16:24:33.563Z,10.30
2019-02-18T16:27:02.552Z,10.67
2019-02-18T16:29:31.029Z,10.83
2019-02-18T16:32:01.335Z,10.40
2019-02-18T16:34:30.465Z,9.73
2019-02-18T16:36:59.625Z,9.47
2019-02-18T16:39:28.187Z,10.53
2019-02-18T16:41:57.136Z,9.37
2019-02-18T16:44:26.321Z,10.13
2019-02-18T16:46:55.319Z,11.10
2019-02-18T16:49:24.388Z,10.07
2019-02-18T16:51:54.527Z,10.20
2019-02-18T16:54:23.809Z,9.60
2019-02-18T16:56:52.755Z,9.13
2019-02-18T16:59:21.801Z,14.37
2019-02-18T17:01:50.803Z,10.97
2019-02-18T17:04:19.789Z,8.03
2019-02-18T17:06:48.820Z,8.10
2019-02-18T17:09:17.865Z,8.07
2019-02-18T17:11:46.320Z,8.03
2019-02-18T17:14:15.401Z,9.73
2019-02-18T17:16:44.550Z,9.70
2019-02-18T17:19:13.105Z,10.90
2019-02-18T17:21:41.718Z,10.80
2019-02-18T17:24:10.708Z,11.50
2019-02-18T17:26:39.873Z,10.93
2019-02-18T17:29:08.971Z,10.07
2019-02-18T17:31:37.541Z,13.00
2019-02-18T17:34:06.469Z,11.60
2019-02-18T17:36:35.668Z,10.90
2019-02-18T17:39:06.528Z,9.97
2019-02-18T17:41:35.397Z,8.23
2019-02-18T17:44:04.439Z,8.13
2019-02-18T17:46:33.571Z,8.27
2019-02-18T17:49:02.893Z,8.10
2019-02-18T17:51:31.507Z,7.60
2019-02-18T17:54:00.638Z,8.97
2019-02-18T17:56:30.069Z,7.83
2019-02-18T17:58:59.056Z,8.20
2019-02-18T18:01:27.738Z,7.50
2019-02-18T18:03:56.774Z,9.10
2019-02-18T18:06:25.849Z,8.63
2019-02-18T18:08:54.806Z,8.37
2019-02-18T18:11:23.774Z,8.40
2019-02-18T18:13:52.820Z,8.07
2019-02-18T18:16:21.864Z,8.00
2019-02-18T18:18:50.937Z,7.90
2019-02-18T18:21:19.830Z,7.70
2019-02-18T18:23:48.837Z,8.73
2019-02-18T18:26:17.892Z,8.80
2019-02-18T18:28:47.005Z,8.63
2019-02-18T18:31:15.836Z,8.77
2019-02-18T18:33:44.944Z,8.87
2019-02-18T18:36:14.006Z,10.30
2019-02-18T18:38:42.998Z,9.27
2019-02-18T18:41:12.082Z,10.30
2019-02-18T18:43:40.616Z,9.20
2019-02-18T18:46:09.722Z,9.40
2019-02-18T18:48:38.785Z,9.90
2019-02-18T18:51:07.917Z,10.10
2019-02-18T18:53:37.049Z,8.70
2019-02-18T18:56:06.209Z,10.30
2019-02-18T18:58:35.279Z,9.47
2019-02-18T19:01:04.268Z,9.07
2019-02-18T19:03:33.427Z,8.97
2019-02-18T19:06:02.542Z,10.70
2019-02-18T19:08:31.612Z,12.40
2019-02-18T19:11:00.790Z,8.50
2019-02-18T19:13:29.897Z,9.00
2019-02-18T19:15:58.538Z,8.10
2019-02-18T19:18:27.645Z,7.27
2019-02-18T19:20:56.725Z,7.33
2019-02-18T19:23:26.957Z,7.67
2019-02-18T19:25:56.289Z,8.97
2019-02-18T19:28:25.387Z,8.77
2019-02-18T19:30:54.477Z,9.77
2019-02-18T19:33:23.556Z,9.93
2019-02-18T19:35:52.709Z,9.30
2019-02-18T19:38:21.762Z,9.57
2019-02-18T19:40:50.696Z,9.90
2019-02-18T19:43:19.850Z,9.90
2019-02-18T19:45:50.025Z,8.80
2019-02-18T19:48:18.664Z,9.00
2019-02-18T19:50:47.754Z,12.07
2019-02-18T19:53:16.728Z,10.27
2019-02-18T19:55:45.544Z,11.30
2019-02-18T19:58:14.145Z,11.30
2019-02-18T20:00:43.222Z,8.47
2019-02-18T20:03:13.538Z,9.17
2019-02-18T20:05:42.565Z,9.80
2019-02-18T20:08:11.791Z,9.70
2019-02-18T20:10:40.953Z,10.10
2019-02-18T20:13:09.538Z,10.20
2019-02-18T20:15:38.588Z,11.97
2019-02-18T20:18:07.664Z,10.90
2019-02-18T20:20:37.916Z,12.70
2019-02-18T20:23:07.001Z,11.50
2019-02-18T20:25:36.127Z,12.47
2019-02-18T20:28:06.138Z,16.00
2019-02-18T20:30:34.804Z,16.07
2019-02-18T20:33:03.337Z,15.10
2019-02-18T20:35:32.594Z,13.53
2019-02-18T20:38:01.165Z,10.93
2019-02-18T20:40:30.251Z,12.30
2019-02-18T20:42:58.875Z,11.17
2019-02-18T20:45:28.006Z,12.03
2019-02-18T20:47:57.005Z,11.90
2019-02-18T20:50:26.127Z,10.27
2019-02-18T20:52:55.229Z,10.83
2019-02-18T20:55:24.318Z,11.57
2019-02-18T20:57:53.433Z,11.60
2019-02-18T21:00:22.533Z,11.93
2019-02-18T21:02:52.659Z,10.87
2019-02-18T21:05:21.693Z,11.97
2019-02-18T21:07:50.773Z,11.13
2019-02-18T21:10:19.953Z,23.60
2019-02-18T21:12:49.009Z,12.13
2019-02-18T21:15:18.038Z,12.53
2019-02-18T21:17:47.220Z,12.30
2019-02-18T21:20:16.364Z,12.23
2019-02-18T21:22:45.462Z,12.00
2019-02-18T21:25:14.600Z,12.03
2019-02-18T21:27:43.627Z,13.10
2019-02-18T21:30:12.807Z,11.73
2019-02-18T21:32:42.012Z,12.37
2019-02-18T21:35:11.057Z,12.37
2019-02-18T21:37:40.244Z,11.20
2019-02-18T21:40:09.032Z,12.50
2019-02-18T21:42:38.039Z,12.07
2019-02-18T21:45:06.946Z,11.97
2019-02-18T21:47:36.012Z,10.63
2019-02-18T21:50:05.638Z,11.93
2019-02-18T21:52:34.247Z,11.63
2019-02-18T21:55:03.446Z,11.10
2019-02-18T21:57:32.780Z,11.00
2019-02-18T22:00:01.890Z,12.43
2019-02-18T22:02:30.876Z,11.90
2019-02-18T22:04:59.501Z,12.73
2019-02-18T22:07:28.655Z,13.90
2019-02-18T22:09:57.573Z,13.13
2019-02-18T22:12:26.650Z,12.40
2019-02-18T22:14:55.648Z,12.00
2019-02-18T22:17:24.203Z,13.20
2019-02-18T22:19:53.308Z,12.37
2019-02-18T22:22:22.371Z,12.20
2019-02-18T22:24:51.825Z,11.40
2019-02-18T22:27:21.148Z,11.20
2019-02-18T22:29:50.141Z,13.07
2019-02-18T22:32:19.193Z,10.63
2019-02-18T22:34:48.743Z,10.50
2019-02-18T22:37:17.882Z,11.10
2019-02-18T22:39:46.864Z,11.47
2019-02-18T22:42:16.014Z,11.83
2019-02-18T22:44:45.231Z,11.50
2019-02-18T22:47:14.237Z,12.33
2019-02-18T22:49:42.810Z,12.23
2019-02-18T22:52:11.527Z,12.57
2019-02-18T22:54:40.902Z,12.70
2019-02-18T22:57:10.464Z,12.90
2019-02-18T22:59:39.450Z,13.47
2019-02-18T23:02:08.504Z,12.73
2019-02-18T23:04:37.628Z,12.00
2019-02-18T23:07:06.661Z,12.40
2019-02-18T23:09:35.858Z,12.70
2019-02-18T23:12:04.919Z,13.50
2019-02-18T23:14:33.868Z,13.13
2019-02-18T23:17:02.868Z,11.97
2019-02-18T23:19:31.948Z,12.33
2019-02-18T23:22:00.866Z,11.50
2019-02-18T23:24:29.784Z,11.90
2019-02-18T23:26:58.724Z,11.47
2019-02-18T23:29:28.217Z,10.70
2019-02-18T23:31:57.222Z,9.87
2019-02-18T23:34:26.282Z,10.73
2019-02-18T23:36:55.239Z,9.80
2019-02-18T23:39:24.124Z,10.80
2019-02-18T23:41:53.154Z,11.27
2019-02-18T23:44:22.184Z,11.87
2019-02-18T23:46:51.150Z,10.53
2019-02-18T23:49:20.120Z,10.80
2019-02-18T23:51:49.146Z,11.33
2019-02-18T23:54:18.282Z,9.13
2019-02-18T23:56:47.284Z,9.60
2019-02-18T23:59:16.244Z,9.50
